sensor_id;sensor_type;location;lat;lon;timestamp;pressure;altitude;pressure_sealevel;temperature;humidity
56241;BME280;42155;53.096;23.226;2023-03-16T00:01:47;99934.06;;;0.73;72.88
56241;BME280;42155;53.096;23.226;2023-03-16T00:03:48;100001.16;;;1.15;72.43
56241;BME280;42155;53.096;23.226;2023-03-16T00:05:50;99976.56;;;0.98;73.18
56241;BME280;42155;53.096;23.226;2023-03-16T00:07:50;99999.38;;;1.15;73.01
56241;BME280;42155;53.096;23.226;2023-03-16T00:09:51;99986.66;;;1.08;72.55
56241;BME280;42155;53.096;23.226;2023-03-16T00:11:51;99991.81;;;1.09;73.09
56241;BME280;42155;53.096;23.226;2023-03-16T00:13:51;99996.97;;;1.11;73.14
56241;BME280;42155;53.096;23.226;2023-03-16T00:15:54;100011.75;;;1.12;73.23
56241;BME280;42155;53.096;23.226;2023-03-16T00:17:55;99999.28;;;0.96;72.91
56241;BME280;42155;53.096;23.226;2023-03-16T00:19:56;100014.47;;;1.09;72.87
56241;BME280;42155;53.096;23.226;2023-03-16T00:21:56;100014.66;;;1.04;72.76
56241;BME280;42155;53.096;23.226;2023-03-16T00:23:57;100020.75;;;1.05;73.22
56241;BME280;42155;53.096;23.226;2023-03-16T00:25:59;100030.34;;;1.04;73.35
56241;BME280;42155;53.096;23.226;2023-03-16T00:27:59;100030.44;;;1.01;72.86
56241;BME280;42155;53.096;23.226;2023-03-16T00:30:00;100022.81;;;0.96;73.03
56241;BME280;42155;53.096;23.226;2023-03-16T00:32:00;100029.88;;;0.94;72.88
56241;BME280;42155;53.096;23.226;2023-03-16T00:34:00;100028.16;;;0.93;73.36
56241;BME280;42155;53.096;23.226;2023-03-16T00:36:01;100022.94;;;0.93;72.95
56241;BME280;42155;53.096;23.226;2023-03-16T00:38:02;100021.47;;;0.86;73.00
56241;BME280;42155;53.096;23.226;2023-03-16T00:40:03;100025.78;;;0.87;73.35
56241;BME280;42155;53.096;23.226;2023-03-16T00:42:03;100008.22;;;0.69;73.63
56241;BME280;42155;53.096;23.226;2023-03-16T00:44:04;100034.81;;;0.79;73.11
56241;BME280;42155;53.096;23.226;2023-03-16T00:46:08;100011.88;;;0.65;73.22
56241;BME280;42155;53.096;23.226;2023-03-16T00:48:09;100024.63;;;0.72;73.34
56241;BME280;42155;53.096;23.226;2023-03-16T00:50:09;100037.50;;;0.77;72.98
56241;BME280;42155;53.096;23.226;2023-03-16T00:52:11;99969.34;;;0.39;73.65
56241;BME280;42155;53.096;23.226;2023-03-16T00:54:12;100029.75;;;0.75;73.31
56241;BME280;42155;53.096;23.226;2023-03-16T00:56:12;100021.34;;;0.67;73.52
56241;BME280;42155;53.096;23.226;2023-03-16T00:58:13;100035.91;;;0.73;73.80
56241;BME280;42155;53.096;23.226;2023-03-16T01:00:13;100036.06;;;0.70;73.65
56241;BME280;42155;53.096;23.226;2023-03-16T01:02:16;100035.25;;;0.68;73.65
56241;BME280;42155;53.096;23.226;2023-03-16T01:04:16;100030.09;;;0.66;73.45
56241;BME280;42155;53.096;23.226;2023-03-16T01:06:17;100031.88;;;0.66;73.29
56241;BME280;42155;53.096;23.226;2023-03-16T01:08:17;100024.13;;;0.63;73.92
56241;BME280;42155;53.096;23.226;2023-03-16T01:10:18;100034.47;;;0.66;73.51
56241;BME280;42155;53.096;23.226;2023-03-16T01:12:18;100039.69;;;0.66;73.55
56241;BME280;42155;53.096;23.226;2023-03-16T01:14:20;100043.09;;;0.68;73.16
56241;BME280;42155;53.096;23.226;2023-03-16T01:16:21;100036.28;;;0.64;73.74
56241;BME280;42155;53.096;23.226;2023-03-16T01:18:21;100050.16;;;0.66;73.71
56241;BME280;42155;53.096;23.226;2023-03-16T01:20:22;100046.88;;;0.61;73.56
56241;BME280;42155;53.096;23.226;2023-03-16T01:22:22;100053.88;;;0.59;73.98
56241;BME280;42155;53.096;23.226;2023-03-16T01:24:23;100056.56;;;0.57;73.90
56241;BME280;42155;53.096;23.226;2023-03-16T01:26:23;100058.44;;;0.54;73.37
56241;BME280;42155;53.096;23.226;2023-03-16T01:28:26;100060.13;;;0.55;73.77
56241;BME280;42155;53.096;23.226;2023-03-16T01:30:26;100061.16;;;0.50;73.46
56241;BME280;42155;53.096;23.226;2023-03-16T01:32:27;100054.31;;;0.48;73.90
56241;BME280;42155;53.096;23.226;2023-03-16T01:34:27;100057.09;;;0.43;74.13
56241;BME280;42155;53.096;23.226;2023-03-16T01:36:27;100054.81;;;0.34;74.26
56241;BME280;42155;53.096;23.226;2023-03-16T01:38:28;100074.63;;;0.40;73.79
56241;BME280;42155;53.096;23.226;2023-03-16T01:40:29;100077.28;;;0.38;73.84
56241;BME280;42155;53.096;23.226;2023-03-16T01:42:29;100055.06;;;0.28;73.34
56241;BME280;42155;53.096;23.226;2023-03-16T01:44:55;100081.66;;;0.38;74.09
56241;BME280;42155;53.096;23.226;2023-03-16T01:46:56;99987.97;;;-0.17;73.37
56241;BME280;42155;53.096;23.226;2023-03-16T01:51:43;100077.97;;;0.20;73.55
56241;BME280;42155;53.096;23.226;2023-03-16T01:53:47;100079.88;;;0.15;73.90
56241;BME280;42155;53.096;23.226;2023-03-16T01:55:49;100042.66;;;-0.14;73.77
56241;BME280;42155;53.096;23.226;2023-03-16T01:57:50;100080.22;;;0.06;74.08
56241;BME280;42155;53.096;23.226;2023-03-16T01:59:58;100082.69;;;0.09;74.03
56241;BME280;42155;53.096;23.226;2023-03-16T02:02:01;100077.59;;;0.06;74.25
56241;BME280;42155;53.096;23.226;2023-03-16T02:04:10;100073.41;;;0.02;73.82
56241;BME280;42155;53.096;23.226;2023-03-16T02:06:18;100080.31;;;0.03;74.19
56241;BME280;42155;53.096;23.226;2023-03-16T02:08:20;100086.31;;;0.05;74.16
56241;BME280;42155;53.096;23.226;2023-03-16T02:10:21;100065.72;;;-0.03;74.21
56241;BME280;42155;53.096;23.226;2023-03-16T02:12:21;100079.56;;;-0.01;73.87
56241;BME280;42155;53.096;23.226;2023-03-16T02:14:22;100083.00;;;0.01;74.15
56241;BME280;42155;53.096;23.226;2023-03-16T02:16:22;100074.34;;;-0.01;74.34
56241;BME280;42155;53.096;23.226;2023-03-16T02:18:23;100022.63;;;-0.38;73.87
56241;BME280;42155;53.096;23.226;2023-03-16T02:22:48;100088.41;;;-0.05;74.00
56241;BME280;42155;53.096;23.226;2023-03-16T02:24:51;100080.72;;;-0.10;74.14
56241;BME280;42155;53.096;23.226;2023-03-16T02:26:54;100091.13;;;-0.08;74.31
56241;BME280;42155;53.096;23.226;2023-03-16T02:31:11;100094.69;;;-0.11;73.81
56241;BME280;42155;53.096;23.226;2023-03-16T02:33:13;100106.94;;;-0.13;73.51
56241;BME280;42155;53.096;23.226;2023-03-16T02:35:13;100066.63;;;-0.29;73.94
56241;BME280;42155;53.096;23.226;2023-03-16T02:37:14;100094.16;;;-0.20;74.19
56241;BME280;42155;53.096;23.226;2023-03-16T02:39:14;100106.25;;;-0.18;74.06
56241;BME280;42155;53.096;23.226;2023-03-16T02:41:19;100103.75;;;-0.21;73.89
56241;BME280;42155;53.096;23.226;2023-03-16T02:43:23;100086.72;;;-0.31;73.98
56241;BME280;42155;53.096;23.226;2023-03-16T02:45:28;100094.25;;;-0.23;73.86
56241;BME280;42155;53.096;23.226;2023-03-16T02:47:35;100098.63;;;-0.24;74.04
56241;BME280;42155;53.096;23.226;2023-03-16T02:49:41;100041.50;;;-0.57;73.86
56241;BME280;42155;53.096;23.226;2023-03-16T02:51:44;100096.91;;;-0.25;73.76
56241;BME280;42155;53.096;23.226;2023-03-16T02:53:45;100116.03;;;-0.24;73.89
56241;BME280;42155;53.096;23.226;2023-03-16T02:55:46;100101.34;;;-0.27;74.33
56241;BME280;42155;53.096;23.226;2023-03-16T02:57:47;100091.22;;;-0.36;73.98
56241;BME280;42155;53.096;23.226;2023-03-16T02:59:47;100105.75;;;-0.29;73.79
56241;BME280;42155;53.096;23.226;2023-03-16T03:01:48;100106.59;;;-0.29;73.84
56241;BME280;42155;53.096;23.226;2023-03-16T03:03:48;100111.88;;;-0.30;73.74
56241;BME280;42155;53.096;23.226;2023-03-16T03:05:48;100107.66;;;-0.34;73.92
56241;BME280;42155;53.096;23.226;2023-03-16T03:07:49;100117.03;;;-0.29;74.55
56241;BME280;42155;53.096;23.226;2023-03-16T03:09:49;100118.03;;;-0.33;74.60
56241;BME280;42155;53.096;23.226;2023-03-16T03:11:49;100133.63;;;-0.31;74.30
56241;BME280;42155;53.096;23.226;2023-03-16T03:13:50;100131.81;;;-0.29;74.07
56241;BME280;42155;53.096;23.226;2023-03-16T03:15:50;100136.94;;;-0.26;74.01
56241;BME280;42155;53.096;23.226;2023-03-16T03:17:51;100095.94;;;-0.47;74.15
56241;BME280;42155;53.096;23.226;2023-03-16T03:19:52;100136.63;;;-0.17;73.75
56241;BME280;42155;53.096;23.226;2023-03-16T03:21:52;100122.00;;;-0.21;73.80
56241;BME280;42155;53.096;23.226;2023-03-16T03:23:52;100135.66;;;-0.14;73.77
56241;BME280;42155;53.096;23.226;2023-03-16T03:25:56;100134.72;;;-0.12;73.83
56241;BME280;42155;53.096;23.226;2023-03-16T03:27:57;100121.75;;;-0.13;74.25
56241;BME280;42155;53.096;23.226;2023-03-16T03:29:57;100135.41;;;-0.07;73.96
56241;BME280;42155;53.096;23.226;2023-03-16T03:31:58;100124.91;;;-0.05;73.35
56241;BME280;42155;53.096;23.226;2023-03-16T03:33:58;100129.19;;;-0.03;73.47
56241;BME280;42155;53.096;23.226;2023-03-16T03:35:59;100133.56;;;-0.03;73.48
56241;BME280;42155;53.096;23.226;2023-03-16T03:37:59;100130.78;;;0.02;74.11
56241;BME280;42155;53.096;23.226;2023-03-16T03:39:59;100086.38;;;-0.22;73.91
56241;BME280;42155;53.096;23.226;2023-03-16T03:42:00;100124.81;;;-0.02;74.20
56241;BME280;42155;53.096;23.226;2023-03-16T03:44:00;100134.09;;;0.07;73.75
56241;BME280;42155;53.096;23.226;2023-03-16T03:46:02;100103.47;;;-0.13;73.99
56241;BME280;42155;53.096;23.226;2023-03-16T03:48:02;100152.28;;;0.08;74.09
56241;BME280;42155;53.096;23.226;2023-03-16T03:50:03;100137.66;;;0.04;73.78
56241;BME280;42155;53.096;23.226;2023-03-16T03:52:04;100140.06;;;0.10;73.80
56241;BME280;42155;53.096;23.226;2023-03-16T03:54:04;100142.84;;;0.06;73.76
56241;BME280;42155;53.096;23.226;2023-03-16T03:56:05;100145.31;;;0.09;74.02
56241;BME280;42155;53.096;23.226;2023-03-16T03:58:05;100141.00;;;0.08;74.31
56241;BME280;42155;53.096;23.226;2023-03-16T04:00:07;100154.75;;;0.13;74.17
56241;BME280;42155;53.096;23.226;2023-03-16T04:02:08;100166.03;;;0.13;74.47
56241;BME280;42155;53.096;23.226;2023-03-16T04:04:09;100152.09;;;0.14;74.16
56241;BME280;42155;53.096;23.226;2023-03-16T04:06:09;100145.22;;;0.12;74.16
56241;BME280;42155;53.096;23.226;2023-03-16T04:08:10;100095.84;;;-0.19;73.93
56241;BME280;42155;53.096;23.226;2023-03-16T04:10:10;100155.66;;;0.12;74.49
56241;BME280;42155;53.096;23.226;2023-03-16T04:12:12;100156.56;;;0.11;74.53
56241;BME280;42155;53.096;23.226;2023-03-16T04:14:12;100148.16;;;0.03;74.51
56241;BME280;42155;53.096;23.226;2023-03-16T04:16:12;100149.91;;;0.02;74.66
56241;BME280;42155;53.096;23.226;2023-03-16T04:18:13;100167.19;;;0.05;74.52
56241;BME280;42155;53.096;23.226;2023-03-16T04:20:13;100141.75;;;-0.14;74.49
56241;BME280;42155;53.096;23.226;2023-03-16T04:22:14;100150.47;;;-0.15;74.88
56241;BME280;42155;53.096;23.226;2023-03-16T04:24:15;100160.72;;;-0.09;74.80
56241;BME280;42155;53.096;23.226;2023-03-16T04:26:16;100148.38;;;-0.30;75.00
56241;BME280;42155;53.096;23.226;2023-03-16T04:28:16;100115.03;;;-0.47;74.52
56241;BME280;42155;53.096;23.226;2023-03-16T04:30:17;100161.13;;;-0.21;74.77
56241;BME280;42155;53.096;23.226;2023-03-16T04:32:17;100155.91;;;-0.21;74.43
56241;BME280;42155;53.096;23.226;2023-03-16T04:34:18;100149.38;;;-0.34;75.14
56241;BME280;42155;53.096;23.226;2023-03-16T04:36:18;100168.16;;;-0.23;75.06
56241;BME280;42155;53.096;23.226;2023-03-16T04:38:19;100163.97;;;-0.29;74.53
56241;BME280;42155;53.096;23.226;2023-03-16T04:40:19;100170.84;;;-0.26;75.12
56241;BME280;42155;53.096;23.226;2023-03-16T04:42:20;100180.38;;;-0.25;74.64
56241;BME280;42155;53.096;23.226;2023-03-16T04:44:20;100184.97;;;-0.33;74.95
56241;BME280;42155;53.096;23.226;2023-03-16T04:46:21;100192.72;;;-0.30;74.68
56241;BME280;42155;53.096;23.226;2023-03-16T04:48:21;100185.88;;;-0.34;74.54
56241;BME280;42155;53.096;23.226;2023-03-16T04:50:21;100195.38;;;-0.32;74.35
56241;BME280;42155;53.096;23.226;2023-03-16T04:52:22;100198.84;;;-0.33;75.01
56241;BME280;42155;53.096;23.226;2023-03-16T04:54:22;100190.44;;;-0.41;74.35
56241;BME280;42155;53.096;23.226;2023-03-16T04:56:22;100197.28;;;-0.37;74.60
56241;BME280;42155;53.096;23.226;2023-03-16T04:58:23;100179.47;;;-0.50;74.97
56241;BME280;42155;53.096;23.226;2023-03-16T05:00:23;100206.81;;;-0.37;74.61
56241;BME280;42155;53.096;23.226;2023-03-16T05:02:24;100217.09;;;-0.31;74.74
56241;BME280;42155;53.096;23.226;2023-03-16T05:04:24;100105.28;;;-0.95;73.92
56241;BME280;42155;53.096;23.226;2023-03-16T05:06:25;100219.56;;;-0.27;74.13
56241;BME280;42155;53.096;23.226;2023-03-16T05:08:25;100214.22;;;-0.23;74.34
56241;BME280;42155;53.096;23.226;2023-03-16T05:10:26;100221.88;;;-0.19;74.19
56241;BME280;42155;53.096;23.226;2023-03-16T05:12:26;100220.81;;;-0.12;73.50
56241;BME280;42155;53.096;23.226;2023-03-16T05:14:27;100214.59;;;-0.08;73.69
56241;BME280;42155;53.096;23.226;2023-03-16T05:16:28;100224.72;;;0.02;73.67
56241;BME280;42155;53.096;23.226;2023-03-16T05:18:28;100215.78;;;0.09;73.18
56241;BME280;42155;53.096;23.226;2023-03-16T05:20:29;100217.28;;;0.16;72.88
56241;BME280;42155;53.096;23.226;2023-03-16T05:22:29;100201.63;;;0.16;72.75
56241;BME280;42155;53.096;23.226;2023-03-16T05:24:29;100219.41;;;0.55;72.16
56241;BME280;42155;53.096;23.226;2023-03-16T05:26:30;100218.44;;;1.06;71.54
56241;BME280;42155;53.096;23.226;2023-03-16T05:28:30;100223.63;;;2.17;69.84
56241;BME280;42155;53.096;23.226;2023-03-16T05:30:30;100210.66;;;3.69;66.91
56241;BME280;42155;53.096;23.226;2023-03-16T05:32:31;100213.22;;;4.75;63.78
56241;BME280;42155;53.096;23.226;2023-03-16T05:34:31;100218.44;;;5.57;61.68
56241;BME280;42155;53.096;23.226;2023-03-16T05:36:31;100145.47;;;6.05;60.38
56241;BME280;42155;53.096;23.226;2023-03-16T05:38:32;100200.94;;;7.33;58.36
56241;BME280;42155;53.096;23.226;2023-03-16T05:40:32;100202.22;;;8.22;57.01
56241;BME280;42155;53.096;23.226;2023-03-16T05:42:33;100202.66;;;8.55;55.63
56241;BME280;42155;53.096;23.226;2023-03-16T05:44:33;100213.84;;;8.46;55.66
56241;BME280;42155;53.096;23.226;2023-03-16T05:46:33;100208.66;;;8.57;55.92
56241;BME280;42155;53.096;23.226;2023-03-16T05:48:34;100205.38;;;9.17;54.63
56241;BME280;42155;53.096;23.226;2023-03-16T05:50:34;100207.44;;;9.99;52.96
56241;BME280;42155;53.096;23.226;2023-03-16T05:52:34;100198.69;;;10.09;52.68
56241;BME280;42155;53.096;23.226;2023-03-16T05:54:35;100200.50;;;10.44;52.22
56241;BME280;42155;53.096;23.226;2023-03-16T05:56:35;100197.94;;;11.34;50.45
56241;BME280;42155;53.096;23.226;2023-03-16T05:58:35;100199.38;;;12.24;48.32
56241;BME280;42155;53.096;23.226;2023-03-16T06:00:36;100198.09;;;13.43;46.49
56241;BME280;42155;53.096;23.226;2023-03-16T06:02:37;100175.19;;;14.10;45.06
56241;BME280;42155;53.096;23.226;2023-03-16T06:04:37;100210.66;;;14.78;44.05
56241;BME280;42155;53.096;23.226;2023-03-16T06:06:38;100195.84;;;15.58;42.72
56241;BME280;42155;53.096;23.226;2023-03-16T06:08:38;100202.66;;;16.77;40.52
56241;BME280;42155;53.096;23.226;2023-03-16T06:10:38;100190.75;;;17.91;38.89
56241;BME280;42155;53.096;23.226;2023-03-16T06:12:39;100205.75;;;18.58;38.01
56241;BME280;42155;53.096;23.226;2023-03-16T06:14:40;100203.16;;;17.84;38.31
56241;BME280;42155;53.096;23.226;2023-03-16T06:16:40;100203.34;;;16.62;39.63
56241;BME280;42155;53.096;23.226;2023-03-16T06:18:40;100204.38;;;15.89;40.69
56241;BME280;42155;53.096;23.226;2023-03-16T06:20:41;100212.47;;;16.69;39.97
56241;BME280;42155;53.096;23.226;2023-03-16T06:22:42;100158.97;;;17.70;37.78
56241;BME280;42155;53.096;23.226;2023-03-16T06:24:43;100194.47;;;18.14;37.05
56241;BME280;42155;53.096;23.226;2023-03-16T06:26:43;100208.78;;;18.72;36.68
56241;BME280;42155;53.096;23.226;2023-03-16T06:28:44;100207.34;;;19.17;35.71
56241;BME280;42155;53.096;23.226;2023-03-16T06:30:44;100192.22;;;19.07;35.50
56241;BME280;42155;53.096;23.226;2023-03-16T06:32:44;100209.56;;;19.05;35.54
56241;BME280;42155;53.096;23.226;2023-03-16T06:34:45;100218.09;;;17.44;37.89
56241;BME280;42155;53.096;23.226;2023-03-16T06:36:45;100225.97;;;15.60;40.78
56241;BME280;42155;53.096;23.226;2023-03-16T06:38:46;100193.56;;;14.03;43.15
56241;BME280;42155;53.096;23.226;2023-03-16T06:40:51;100222.00;;;13.23;44.59
56241;BME280;42155;53.096;23.226;2023-03-16T06:42:51;100236.16;;;12.19;46.05
56241;BME280;42155;53.096;23.226;2023-03-16T06:44:51;100230.53;;;11.25;48.11
56241;BME280;42155;53.096;23.226;2023-03-16T06:46:52;100241.41;;;10.17;49.81
56241;BME280;42155;53.096;23.226;2023-03-16T06:48:52;100243.66;;;9.37;51.48
56241;BME280;42155;53.096;23.226;2023-03-16T06:50:52;100234.59;;;8.78;52.64
56241;BME280;42155;53.096;23.226;2023-03-16T06:52:53;100245.19;;;8.52;53.24
56241;BME280;42155;53.096;23.226;2023-03-16T06:54:53;100240.94;;;8.23;53.25
56241;BME280;42155;53.096;23.226;2023-03-16T06:56:53;100245.69;;;8.17;53.25
56241;BME280;42155;53.096;23.226;2023-03-16T06:58:54;100244.00;;;8.16;53.44
56241;BME280;42155;53.096;23.226;2023-03-16T07:00:54;100257.13;;;8.18;53.51
56241;BME280;42155;53.096;23.226;2023-03-16T07:02:54;100255.16;;;8.07;53.12
56241;BME280;42155;53.096;23.226;2023-03-16T07:04:55;100251.06;;;7.89;53.50
56241;BME280;42155;53.096;23.226;2023-03-16T07:06:55;100245.19;;;7.98;53.38
56241;BME280;42155;53.096;23.226;2023-03-16T07:08:55;100263.22;;;8.06;53.66
56241;BME280;42155;53.096;23.226;2023-03-16T07:10:56;100260.44;;;8.07;53.00
56241;BME280;42155;53.096;23.226;2023-03-16T07:12:56;100264.25;;;8.03;53.33
56241;BME280;42155;53.096;23.226;2023-03-16T07:14:56;100250.47;;;7.71;53.04
56241;BME280;42155;53.096;23.226;2023-03-16T07:16:57;100234.47;;;7.60;53.55
56241;BME280;42155;53.096;23.226;2023-03-16T07:18:57;100260.69;;;7.90;53.30
56241;BME280;42155;53.096;23.226;2023-03-16T07:20:57;100260.75;;;8.03;52.89
56241;BME280;42155;53.096;23.226;2023-03-16T07:22:58;100261.81;;;8.00;53.10
56241;BME280;42155;53.096;23.226;2023-03-16T07:24:58;100265.50;;;7.98;52.88
56241;BME280;42155;53.096;23.226;2023-03-16T07:26:59;100265.97;;;7.63;53.59
56241;BME280;42155;53.096;23.226;2023-03-16T07:28:59;100270.34;;;7.35;54.46
56241;BME280;42155;53.096;23.226;2023-03-16T07:30:59;100274.69;;;7.08;54.54
56241;BME280;42155;53.096;23.226;2023-03-16T07:33:00;100279.69;;;7.12;54.35
56241;BME280;42155;53.096;23.226;2023-03-16T07:35:00;100279.47;;;7.30;54.35
56241;BME280;42155;53.096;23.226;2023-03-16T07:37:00;100244.81;;;7.22;54.04
56241;BME280;42155;53.096;23.226;2023-03-16T07:39:01;100252.50;;;7.25;54.54
56241;BME280;42155;53.096;23.226;2023-03-16T07:41:01;100255.53;;;7.19;54.10
56241;BME280;42155;53.096;23.226;2023-03-16T07:43:01;100266.94;;;7.33;54.20
56241;BME280;42155;53.096;23.226;2023-03-16T07:45:03;100284.97;;;7.27;54.88
56241;BME280;42155;53.096;23.226;2023-03-16T07:47:03;100278.91;;;7.25;55.08
56241;BME280;42155;53.096;23.226;2023-03-16T07:49:04;100286.09;;;7.23;54.49
56241;BME280;42155;53.096;23.226;2023-03-16T07:51:04;100284.47;;;7.20;55.14
56241;BME280;42155;53.096;23.226;2023-03-16T07:53:05;100279.28;;;7.33;54.54
56241;BME280;42155;53.096;23.226;2023-03-16T07:55:05;100282.13;;;7.44;54.04
56241;BME280;42155;53.096;23.226;2023-03-16T07:57:06;100274.56;;;7.52;53.79
56241;BME280;42155;53.096;23.226;2023-03-16T07:59:07;100278.91;;;7.39;53.90
56241;BME280;42155;53.096;23.226;2023-03-16T08:01:07;100261.47;;;7.36;54.02
56241;BME280;42155;53.096;23.226;2023-03-16T08:03:08;100280.59;;;7.54;53.75
56241;BME280;42155;53.096;23.226;2023-03-16T08:05:08;100282.63;;;7.78;54.12
56241;BME280;42155;53.096;23.226;2023-03-16T08:07:10;100269.34;;;8.06;52.83
56241;BME280;42155;53.096;23.226;2023-03-16T08:09:11;100290.22;;;8.38;52.42
56241;BME280;42155;53.096;23.226;2023-03-16T08:11:11;100277.09;;;8.49;51.67
56241;BME280;42155;53.096;23.226;2023-03-16T08:13:12;100263.53;;;8.41;51.38
56241;BME280;42155;53.096;23.226;2023-03-16T08:15:12;100281.06;;;8.29;51.96
56241;BME280;42155;53.096;23.226;2023-03-16T08:17:12;100291.72;;;8.01;51.69
56241;BME280;42155;53.096;23.226;2023-03-16T08:19:13;100279.59;;;7.84;51.42
56241;BME280;42155;53.096;23.226;2023-03-16T08:21:13;100270.63;;;7.86;51.54
56241;BME280;42155;53.096;23.226;2023-03-16T08:23:13;100282.19;;;7.98;51.45
56241;BME280;42155;53.096;23.226;2023-03-16T08:25:14;100285.00;;;8.09;51.24
56241;BME280;42155;53.096;23.226;2023-03-16T08:27:15;100283.41;;;8.34;50.01
56241;BME280;42155;53.096;23.226;2023-03-16T08:29:15;100282.81;;;8.43;50.04
56241;BME280;42155;53.096;23.226;2023-03-16T08:31:15;100278.72;;;8.52;49.48
56241;BME280;42155;53.096;23.226;2023-03-16T08:33:16;100289.47;;;8.22;49.68
56241;BME280;42155;53.096;23.226;2023-03-16T08:35:16;100291.03;;;8.11;49.35
56241;BME280;42155;53.096;23.226;2023-03-16T08:37:17;100288.78;;;8.05;50.17
56241;BME280;42155;53.096;23.226;2023-03-16T08:39:17;100293.50;;;8.27;50.25
56241;BME280;42155;53.096;23.226;2023-03-16T08:41:17;100276.25;;;8.49;49.74
56241;BME280;42155;53.096;23.226;2023-03-16T08:43:18;100257.88;;;8.47;49.56
56241;BME280;42155;53.096;23.226;2023-03-16T08:45:18;100286.50;;;8.93;48.49
56241;BME280;42155;53.096;23.226;2023-03-16T08:47:19;100291.25;;;9.13;47.83
56241;BME280;42155;53.096;23.226;2023-03-16T08:49:19;100285.34;;;8.97;48.12
56241;BME280;42155;53.096;23.226;2023-03-16T08:51:19;100269.53;;;8.96;48.20
56241;BME280;42155;53.096;23.226;2023-03-16T08:53:20;100257.59;;;8.90;47.66
56241;BME280;42155;53.096;23.226;2023-03-16T08:55:20;100283.09;;;8.91;47.46
56241;BME280;42155;53.096;23.226;2023-03-16T08:57:21;100299.00;;;8.78;47.41
56241;BME280;42155;53.096;23.226;2023-03-16T08:59:21;100302.25;;;8.69;47.45
56241;BME280;42155;53.096;23.226;2023-03-16T09:01:21;100304.72;;;8.45;48.16
56241;BME280;42155;53.096;23.226;2023-03-16T09:03:22;100294.16;;;8.31;48.33
56241;BME280;42155;53.096;23.226;2023-03-16T09:05:22;100294.88;;;8.20;47.88
56241;BME280;42155;53.096;23.226;2023-03-16T09:07:22;100309.56;;;8.38;47.91
56241;BME280;42155;53.096;23.226;2023-03-16T09:09:23;100315.97;;;8.34;46.89
56241;BME280;42155;53.096;23.226;2023-03-16T09:11:23;100309.72;;;8.08;47.61
56241;BME280;42155;53.096;23.226;2023-03-16T09:13:24;100297.69;;;8.04;47.90
56241;BME280;42155;53.096;23.226;2023-03-16T09:15:24;100312.72;;;8.16;47.90
56241;BME280;42155;53.096;23.226;2023-03-16T09:17:25;100310.50;;;8.10;47.21
56241;BME280;42155;53.096;23.226;2023-03-16T09:19:25;100321.34;;;8.06;48.01
56241;BME280;42155;53.096;23.226;2023-03-16T09:21:25;100282.59;;;7.92;47.62
56241;BME280;42155;53.096;23.226;2023-03-16T09:23:26;100318.00;;;8.16;47.66
56241;BME280;42155;53.096;23.226;2023-03-16T09:25:26;100322.75;;;8.11;47.27
56241;BME280;42155;53.096;23.226;2023-03-16T09:27:27;100307.03;;;8.23;47.29
56241;BME280;42155;53.096;23.226;2023-03-16T09:29:27;100301.41;;;8.14;46.59
56241;BME280;42155;53.096;23.226;2023-03-16T09:31:27;100303.84;;;8.17;46.31
56241;BME280;42155;53.096;23.226;2023-03-16T09:33:28;100317.50;;;7.97;46.80
56241;BME280;42155;53.096;23.226;2023-03-16T09:35:29;100324.53;;;7.70;46.83
56241;BME280;42155;53.096;23.226;2023-03-16T09:37:29;100317.19;;;7.60;47.14
56241;BME280;42155;53.096;23.226;2023-03-16T09:39:30;100319.09;;;7.58;47.48
56241;BME280;42155;53.096;23.226;2023-03-16T09:43:55;100322.34;;;7.90;47.42
56241;BME280;42155;53.096;23.226;2023-03-16T09:46:04;100320.91;;;8.26;46.79
56241;BME280;42155;53.096;23.226;2023-03-16T09:48:09;100312.31;;;8.37;46.28
56241;BME280;42155;53.096;23.226;2023-03-16T09:50:21;100320.28;;;8.08;46.64
56241;BME280;42155;53.096;23.226;2023-03-16T09:52:31;100324.28;;;8.01;47.00
56241;BME280;42155;53.096;23.226;2023-03-16T09:54:38;100317.88;;;8.05;47.14
56241;BME280;42155;53.096;23.226;2023-03-16T09:56:42;100287.81;;;7.79;47.32
56241;BME280;42155;53.096;23.226;2023-03-16T09:58:43;100326.16;;;8.13;46.61
56241;BME280;42155;53.096;23.226;2023-03-16T10:01:15;100326.84;;;8.30;45.71
56241;BME280;42155;53.096;23.226;2023-03-16T10:05:59;100334.47;;;8.07;45.67
56241;BME280;42155;53.096;23.226;2023-03-16T10:08:14;100328.94;;;8.25;46.03
56241;BME280;42155;53.096;23.226;2023-03-16T10:12:47;100258.00;;;7.77;46.08
56241;BME280;42155;53.096;23.226;2023-03-16T10:21:30;100334.31;;;8.37;45.51
56241;BME280;42155;53.096;23.226;2023-03-16T10:23:33;100333.31;;;8.53;45.84
56241;BME280;42155;53.096;23.226;2023-03-16T10:25:45;100329.56;;;8.82;45.41
56241;BME280;42155;53.096;23.226;2023-03-16T10:27:46;100286.28;;;8.83;45.29
56241;BME280;42155;53.096;23.226;2023-03-16T10:29:47;100309.25;;;8.83;45.24
56241;BME280;42155;53.096;23.226;2023-03-16T10:31:47;100335.66;;;8.57;45.84
56241;BME280;42155;53.096;23.226;2023-03-16T10:33:51;100332.41;;;8.39;46.46
56241;BME280;42155;53.096;23.226;2023-03-16T10:37:57;100292.59;;;8.01;46.88
56241;BME280;42155;53.096;23.226;2023-03-16T10:39:57;100299.16;;;8.08;46.98
56241;BME280;42155;53.096;23.226;2023-03-16T10:41:58;100323.22;;;8.18;46.93
56241;BME280;42155;53.096;23.226;2023-03-16T10:44:21;100337.88;;;8.09;46.80
56241;BME280;42155;53.096;23.226;2023-03-16T10:46:24;100316.47;;;7.85;47.78
56241;BME280;42155;53.096;23.226;2023-03-16T10:48:24;100309.13;;;7.90;47.58
56241;BME280;42155;53.096;23.226;2023-03-16T10:50:25;100337.66;;;8.12;47.29
56241;BME280;42155;53.096;23.226;2023-03-16T10:52:38;100261.47;;;7.51;47.28
56241;BME280;42155;53.096;23.226;2023-03-16T10:54:40;100336.03;;;7.83;47.54
56241;BME280;42155;53.096;23.226;2023-03-16T10:56:45;100344.53;;;7.74;47.29